sensor_id;sensor_type;location;lat;lon;timestamp;P1;durP1;ratioP1;P2;durP2;ratioP2
68803;SDS011;55787;52.678;13.314;2022-09-09T00:04:42;25.00;;;9.63;;
68803;SDS011;55787;52.678;13.314;2022-09-09T00:09:53;25.60;;;9.68;;
68803;SDS011;55787;52.678;13.314;2022-09-09T00:12:45;26.00;;;9.43;;
68803;SDS011;55787;52.678;13.314;2022-09-09T00:15:51;23.27;;;9.27;;
68803;SDS011;55787;52.678;13.314;2022-09-09T00:18:25;21.75;;;9.23;;
68803;SDS011;55787;52.678;13.314;2022-09-09T00:21:03;22.73;;;9.20;;
68803;SDS011;55787;52.678;13.314;2022-09-09T00:23:34;26.40;;;9.98;;
68803;SDS011;55787;52.678;13.314;2022-09-09T00:26:09;24.43;;;9.40;;
68803;SDS011;55787;52.678;13.314;2022-09-09T00:32:12;20.65;;;8.93;;
68803;SDS011;55787;52.678;13.314;2022-09-09T00:37:42;23.48;;;9.13;;
68803;SDS011;55787;52.678;13.314;2022-09-09T00:40:55;22.33;;;8.87;;
68803;SDS011;55787;52.678;13.314;2022-09-09T00:43:16;21.45;;;8.82;;
68803;SDS011;55787;52.678;13.314;2022-09-09T00:45:52;24.88;;;8.95;;
68803;SDS011;55787;52.678;13.314;2022-09-09T00:48:52;25.85;;;9.25;;
68803;SDS011;55787;52.678;13.314;2022-09-09T00:54:26;20.63;;;8.13;;
68803;SDS011;55787;52.678;13.314;2022-09-09T00:57:07;21.98;;;8.63;;
68803;SDS011;55787;52.678;13.314;2022-09-09T00:59:55;22.50;;;8.60;;
68803;SDS011;55787;52.678;13.314;2022-09-09T01:05:02;21.05;;;8.18;;
68803;SDS011;55787;52.678;13.314;2022-09-09T01:07:34;18.80;;;8.13;;
68803;SDS011;55787;52.678;13.314;2022-09-09T01:10:00;22.55;;;8.25;;
68803;SDS011;55787;52.678;13.314;2022-09-09T01:12:38;23.40;;;8.90;;
68803;SDS011;55787;52.678;13.314;2022-09-09T01:15:09;22.08;;;8.50;;
68803;SDS011;55787;52.678;13.314;2022-09-09T01:20:33;23.30;;;9.20;;
68803;SDS011;55787;52.678;13.314;2022-09-09T01:23:16;24.20;;;9.07;;
68803;SDS011;55787;52.678;13.314;2022-09-09T01:28:38;23.10;;;9.05;;
68803;SDS011;55787;52.678;13.314;2022-09-09T01:31:05;27.13;;;9.93;;
68803;SDS011;55787;52.678;13.314;2022-09-09T01:33:33;22.67;;;8.67;;
68803;SDS011;55787;52.678;13.314;2022-09-09T01:36:02;24.70;;;9.45;;
68803;SDS011;55787;52.678;13.314;2022-09-09T01:38:36;21.48;;;8.75;;
68803;SDS011;55787;52.678;13.314;2022-09-09T01:41:03;21.95;;;9.05;;
68803;SDS011;55787;52.678;13.314;2022-09-09T01:43:30;23.52;;;9.48;;
68803;SDS011;55787;52.678;13.314;2022-09-09T01:45:58;26.23;;;9.90;;
68803;SDS011;55787;52.678;13.314;2022-09-09T01:48:26;24.92;;;9.40;;
68803;SDS011;55787;52.678;13.314;2022-09-09T01:50:54;25.20;;;9.35;;
68803;SDS011;55787;52.678;13.314;2022-09-09T01:53:20;26.75;;;9.05;;
68803;SDS011;55787;52.678;13.314;2022-09-09T01:59:12;27.03;;;9.20;;
68803;SDS011;55787;52.678;13.314;2022-09-09T02:01:53;24.17;;;9.18;;
68803;SDS011;55787;52.678;13.314;2022-09-09T02:04:37;25.55;;;9.45;;
68803;SDS011;55787;52.678;13.314;2022-09-09T02:07:10;25.02;;;9.05;;
68803;SDS011;55787;52.678;13.314;2022-09-09T02:09:46;23.80;;;9.18;;
68803;SDS011;55787;52.678;13.314;2022-09-09T02:12:16;23.67;;;9.33;;
68803;SDS011;55787;52.678;13.314;2022-09-09T02:14:49;21.65;;;8.93;;
68803;SDS011;55787;52.678;13.314;2022-09-09T02:17:27;22.90;;;9.07;;
68803;SDS011;55787;52.678;13.314;2022-09-09T02:20:03;22.23;;;8.98;;
68803;SDS011;55787;52.678;13.314;2022-09-09T02:22:33;20.33;;;8.45;;
68803;SDS011;55787;52.678;13.314;2022-09-09T02:25:01;22.40;;;8.63;;
68803;SDS011;55787;52.678;13.314;2022-09-09T02:27:31;23.10;;;8.77;;
68803;SDS011;55787;52.678;13.314;2022-09-09T02:29:57;23.40;;;8.75;;
68803;SDS011;55787;52.678;13.314;2022-09-09T02:32:28;25.65;;;9.15;;
68803;SDS011;55787;52.678;13.314;2022-09-09T02:34:58;21.13;;;8.27;;
68803;SDS011;55787;52.678;13.314;2022-09-09T02:37:32;20.77;;;8.17;;
68803;SDS011;55787;52.678;13.314;2022-09-09T02:40:03;20.05;;;8.23;;
68803;SDS011;55787;52.678;13.314;2022-09-09T02:42:31;22.17;;;8.60;;
68803;SDS011;55787;52.678;13.314;2022-09-09T02:44:58;22.17;;;8.88;;
68803;SDS011;55787;52.678;13.314;2022-09-09T02:50:26;22.50;;;8.53;;
68803;SDS011;55787;52.678;13.314;2022-09-09T02:53:09;22.70;;;8.70;;
68803;SDS011;55787;52.678;13.314;2022-09-09T02:55:46;23.50;;;9.35;;
68803;SDS011;55787;52.678;13.314;2022-09-09T02:58:15;21.63;;;8.75;;
68803;SDS011;55787;52.678;13.314;2022-09-09T03:00:47;22.35;;;8.10;;
68803;SDS011;55787;52.678;13.314;2022-09-09T03:03:17;25.17;;;9.90;;
68803;SDS011;55787;52.678;13.314;2022-09-09T03:05:44;24.65;;;9.43;;
68803;SDS011;55787;52.678;13.314;2022-09-09T03:08:11;25.95;;;9.90;;
68803;SDS011;55787;52.678;13.314;2022-09-09T03:10:39;27.50;;;9.57;;
68803;SDS011;55787;52.678;13.314;2022-09-09T03:13:05;22.92;;;8.82;;
68803;SDS011;55787;52.678;13.314;2022-09-09T03:15:32;24.00;;;9.13;;
68803;SDS011;55787;52.678;13.314;2022-09-09T03:17:59;24.45;;;9.38;;
68803;SDS011;55787;52.678;13.314;2022-09-09T03:20:26;24.42;;;9.70;;
68803;SDS011;55787;52.678;13.314;2022-09-09T03:22:55;31.80;;;10.20;;
68803;SDS011;55787;52.678;13.314;2022-09-09T03:25:22;22.55;;;8.85;;
68803;SDS011;55787;52.678;13.314;2022-09-09T03:27:52;22.67;;;9.13;;
68803;SDS011;55787;52.678;13.314;2022-09-09T03:30:21;23.60;;;9.43;;
68803;SDS011;55787;52.678;13.314;2022-09-09T03:32:48;27.10;;;9.55;;
68803;SDS011;55787;52.678;13.314;2022-09-09T03:35:15;27.50;;;10.38;;
68803;SDS011;55787;52.678;13.314;2022-09-09T03:37:42;28.17;;;10.18;;
68803;SDS011;55787;52.678;13.314;2022-09-09T03:40:08;30.60;;;10.00;;
68803;SDS011;55787;52.678;13.314;2022-09-09T03:42:39;25.80;;;9.65;;
68803;SDS011;55787;52.678;13.314;2022-09-09T03:45:06;29.33;;;10.60;;
68803;SDS011;55787;52.678;13.314;2022-09-09T03:47:35;44.92;;;11.85;;
68803;SDS011;55787;52.678;13.314;2022-09-09T03:50:01;30.83;;;10.90;;
68803;SDS011;55787;52.678;13.314;2022-09-09T03:52:30;38.67;;;11.07;;
68803;SDS011;55787;52.678;13.314;2022-09-09T03:54:56;43.40;;;11.50;;
68803;SDS011;55787;52.678;13.314;2022-09-09T03:57:23;63.03;;;12.38;;
68803;SDS011;55787;52.678;13.314;2022-09-09T03:59:49;54.28;;;12.57;;
68803;SDS011;55787;52.678;13.314;2022-09-09T04:02:16;105.03;;;13.27;;
68803;SDS011;55787;52.678;13.314;2022-09-09T04:04:42;93.97;;;12.20;;
68803;SDS011;55787;52.678;13.314;2022-09-09T04:07:09;60.42;;;12.02;;
68803;SDS011;55787;52.678;13.314;2022-09-09T04:09:36;48.70;;;11.77;;
68803;SDS011;55787;52.678;13.314;2022-09-09T04:12:02;41.97;;;10.95;;
68803;SDS011;55787;52.678;13.314;2022-09-09T04:14:29;37.55;;;11.20;;
68803;SDS011;55787;52.678;13.314;2022-09-09T04:16:55;39.43;;;10.50;;
68803;SDS011;55787;52.678;13.314;2022-09-09T04:19:23;34.08;;;9.98;;
68803;SDS011;55787;52.678;13.314;2022-09-09T04:21:49;32.83;;;10.18;;
68803;SDS011;55787;52.678;13.314;2022-09-09T04:24:17;32.63;;;9.90;;
68803;SDS011;55787;52.678;13.314;2022-09-09T04:26:45;40.40;;;9.90;;
68803;SDS011;55787;52.678;13.314;2022-09-09T04:29:11;25.50;;;9.33;;
68803;SDS011;55787;52.678;13.314;2022-09-09T04:31:38;30.50;;;10.05;;
68803;SDS011;55787;52.678;13.314;2022-09-09T04:34:11;21.70;;;8.98;;
68803;SDS011;55787;52.678;13.314;2022-09-09T04:36:37;22.67;;;9.13;;
68803;SDS011;55787;52.678;13.314;2022-09-09T04:39:05;23.83;;;9.45;;
68803;SDS011;55787;52.678;13.314;2022-09-09T04:41:32;24.30;;;9.67;;
68803;SDS011;55787;52.678;13.314;2022-09-09T04:43:59;24.48;;;9.55;;
68803;SDS011;55787;52.678;13.314;2022-09-09T04:46:26;23.30;;;9.05;;
68803;SDS011;55787;52.678;13.314;2022-09-09T04:48:53;24.35;;;9.57;;
68803;SDS011;55787;52.678;13.314;2022-09-09T04:51:19;24.38;;;9.10;;
68803;SDS011;55787;52.678;13.314;2022-09-09T04:53:46;25.20;;;9.87;;
68803;SDS011;55787;52.678;13.314;2022-09-09T04:56:14;24.23;;;9.77;;
68803;SDS011;55787;52.678;13.314;2022-09-09T04:58:41;28.00;;;9.93;;
68803;SDS011;55787;52.678;13.314;2022-09-09T05:01:15;26.92;;;10.10;;
68803;SDS011;55787;52.678;13.314;2022-09-09T05:03:44;27.58;;;9.95;;
68803;SDS011;55787;52.678;13.314;2022-09-09T05:06:15;27.60;;;10.20;;
68803;SDS011;55787;52.678;13.314;2022-09-09T05:08:43;27.65;;;10.20;;
68803;SDS011;55787;52.678;13.314;2022-09-09T05:11:17;28.15;;;11.15;;
68803;SDS011;55787;52.678;13.314;2022-09-09T05:13:46;29.23;;;10.57;;
68803;SDS011;55787;52.678;13.314;2022-09-09T05:16:13;28.77;;;11.32;;
68803;SDS011;55787;52.678;13.314;2022-09-09T05:18:40;31.07;;;10.90;;
68803;SDS011;55787;52.678;13.314;2022-09-09T05:21:09;35.70;;;11.60;;
68803;SDS011;55787;52.678;13.314;2022-09-09T05:23:37;29.98;;;11.02;;
68803;SDS011;55787;52.678;13.314;2022-09-09T05:26:04;30.58;;;11.48;;
68803;SDS011;55787;52.678;13.314;2022-09-09T05:28:33;27.92;;;10.80;;
68803;SDS011;55787;52.678;13.314;2022-09-09T05:31:02;30.87;;;11.03;;
68803;SDS011;55787;52.678;13.314;2022-09-09T05:33:31;30.48;;;11.60;;
68803;SDS011;55787;52.678;13.314;2022-09-09T05:36:02;36.33;;;12.15;;
68803;SDS011;55787;52.678;13.314;2022-09-09T05:38:30;33.30;;;12.75;;
68803;SDS011;55787;52.678;13.314;2022-09-09T05:40:59;35.47;;;12.45;;
68803;SDS011;55787;52.678;13.314;2022-09-09T05:43:26;36.47;;;12.77;;
68803;SDS011;55787;52.678;13.314;2022-09-09T05:45:58;32.38;;;12.27;;
68803;SDS011;55787;52.678;13.314;2022-09-09T05:48:36;30.90;;;11.55;;
68803;SDS011;55787;52.678;13.314;2022-09-09T05:51:08;30.90;;;12.43;;
68803;SDS011;55787;52.678;13.314;2022-09-09T05:53:38;31.13;;;11.68;;
68803;SDS011;55787;52.678;13.314;2022-09-09T05:56:06;24.57;;;10.40;;
68803;SDS011;55787;52.678;13.314;2022-09-09T05:58:40;21.10;;;10.35;;
68803;SDS011;55787;52.678;13.314;2022-09-09T06:01:11;16.98;;;8.98;;
68803;SDS011;55787;52.678;13.314;2022-09-09T06:03:40;17.52;;;8.48;;
68803;SDS011;55787;52.678;13.314;2022-09-09T06:06:08;17.23;;;7.68;;
68803;SDS011;55787;52.678;13.314;2022-09-09T06:08:37;15.60;;;7.60;;
68803;SDS011;55787;52.678;13.314;2022-09-09T06:11:08;16.55;;;8.27;;
68803;SDS011;55787;52.678;13.314;2022-09-09T06:13:41;15.40;;;8.10;;
68803;SDS011;55787;52.678;13.314;2022-09-09T06:16:08;15.85;;;8.48;;
68803;SDS011;55787;52.678;13.314;2022-09-09T06:18:39;14.90;;;7.38;;
68803;SDS011;55787;52.678;13.314;2022-09-09T06:21:08;17.87;;;8.03;;
68803;SDS011;55787;52.678;13.314;2022-09-09T06:23:39;17.65;;;7.90;;
68803;SDS011;55787;52.678;13.314;2022-09-09T06:26:09;14.95;;;7.82;;
68803;SDS011;55787;52.678;13.314;2022-09-09T06:28:38;15.38;;;7.97;;
68803;SDS011;55787;52.678;13.314;2022-09-09T06:31:06;14.98;;;7.07;;
68803;SDS011;55787;52.678;13.314;2022-09-09T06:33:34;11.33;;;5.80;;
68803;SDS011;55787;52.678;13.314;2022-09-09T06:36:04;10.93;;;5.63;;
68803;SDS011;55787;52.678;13.314;2022-09-09T06:38:31;10.30;;;4.90;;
68803;SDS011;55787;52.678;13.314;2022-09-09T06:40:58;10.68;;;4.70;;
68803;SDS011;55787;52.678;13.314;2022-09-09T06:43:25;8.77;;;4.38;;
68803;SDS011;55787;52.678;13.314;2022-09-09T06:45:53;9.13;;;4.00;;
68803;SDS011;55787;52.678;13.314;2022-09-09T06:48:26;8.95;;;3.90;;
68803;SDS011;55787;52.678;13.314;2022-09-09T06:51:00;9.63;;;4.43;;
68803;SDS011;55787;52.678;13.314;2022-09-09T06:53:28;9.10;;;3.92;;
68803;SDS011;55787;52.678;13.314;2022-09-09T06:55:56;10.38;;;4.28;;
68803;SDS011;55787;52.678;13.314;2022-09-09T06:58:22;8.23;;;3.90;;
68803;SDS011;55787;52.678;13.314;2022-09-09T07:00:48;7.80;;;3.45;;
68803;SDS011;55787;52.678;13.314;2022-09-09T07:03:15;9.32;;;3.80;;
68803;SDS011;55787;52.678;13.314;2022-09-09T07:05:42;8.77;;;3.80;;
68803;SDS011;55787;52.678;13.314;2022-09-09T07:08:10;9.73;;;3.33;;
68803;SDS011;55787;52.678;13.314;2022-09-09T07:10:38;9.27;;;3.40;;
68803;SDS011;55787;52.678;13.314;2022-09-09T07:13:07;7.95;;;3.10;;
68803;SDS011;55787;52.678;13.314;2022-09-09T07:15:33;8.88;;;3.70;;
68803;SDS011;55787;52.678;13.314;2022-09-09T07:18:00;8.95;;;3.30;;
68803;SDS011;55787;52.678;13.314;2022-09-09T07:20:27;7.03;;;3.20;;
68803;SDS011;55787;52.678;13.314;2022-09-09T07:22:54;7.13;;;2.63;;
68803;SDS011;55787;52.678;13.314;2022-09-09T07:25:21;7.85;;;3.28;;
68803;SDS011;55787;52.678;13.314;2022-09-09T07:27:48;8.57;;;2.78;;
68803;SDS011;55787;52.678;13.314;2022-09-09T07:30:14;6.25;;;2.42;;
68803;SDS011;55787;52.678;13.314;2022-09-09T07:32:48;8.23;;;2.60;;
68803;SDS011;55787;52.678;13.314;2022-09-09T07:35:17;7.53;;;2.63;;
68803;SDS011;55787;52.678;13.314;2022-09-09T07:37:44;7.10;;;2.90;;
68803;SDS011;55787;52.678;13.314;2022-09-09T07:40:16;8.27;;;3.00;;
68803;SDS011;55787;52.678;13.314;2022-09-09T07:42:42;7.45;;;2.60;;
68803;SDS011;55787;52.678;13.314;2022-09-09T07:45:09;6.80;;;2.70;;
68803;SDS011;55787;52.678;13.314;2022-09-09T07:47:35;7.07;;;2.27;;
68803;SDS011;55787;52.678;13.314;2022-09-09T07:50:01;7.43;;;2.45;;
68803;SDS011;55787;52.678;13.314;2022-09-09T07:52:28;7.53;;;2.40;;
68803;SDS011;55787;52.678;13.314;2022-09-09T07:54:54;8.15;;;2.00;;
68803;SDS011;55787;52.678;13.314;2022-09-09T07:57:22;6.60;;;2.00;;
68803;SDS011;55787;52.678;13.314;2022-09-09T07:59:49;8.73;;;2.03;;
68803;SDS011;55787;52.678;13.314;2022-09-09T08:02:15;6.97;;;2.00;;
68803;SDS011;55787;52.678;13.314;2022-09-09T08:04:42;8.88;;;2.10;;
68803;SDS011;55787;52.678;13.314;2022-09-09T08:07:08;8.93;;;2.08;;
68803;SDS011;55787;52.678;13.314;2022-09-09T08:09:34;7.88;;;1.60;;
68803;SDS011;55787;52.678;13.314;2022-09-09T08:12:01;7.43;;;2.10;;
68803;SDS011;55787;52.678;13.314;2022-09-09T08:14:28;6.57;;;2.10;;
68803;SDS011;55787;52.678;13.314;2022-09-09T08:16:55;6.55;;;2.03;;
68803;SDS011;55787;52.678;13.314;2022-09-09T08:19:23;8.95;;;2.17;;
68803;SDS011;55787;52.678;13.314;2022-09-09T08:21:49;6.95;;;1.92;;
68803;SDS011;55787;52.678;13.314;2022-09-09T08:24:16;6.53;;;2.00;;
68803;SDS011;55787;52.678;13.314;2022-09-09T08:26:43;7.35;;;2.38;;
68803;SDS011;55787;52.678;13.314;2022-09-09T08:29:12;6.82;;;2.08;;
68803;SDS011;55787;52.678;13.314;2022-09-09T08:31:47;7.18;;;2.25;;
68803;SDS011;55787;52.678;13.314;2022-09-09T08:34:24;6.82;;;2.40;;
68803;SDS011;55787;52.678;13.314;2022-09-09T08:36:53;5.83;;;1.90;;
68803;SDS011;55787;52.678;13.314;2022-09-09T08:39:20;7.75;;;2.20;;
68803;SDS011;55787;52.678;13.314;2022-09-09T08:42:01;6.47;;;2.30;;
68803;SDS011;55787;52.678;13.314;2022-09-09T08:44:55;8.25;;;2.03;;
68803;SDS011;55787;52.678;13.314;2022-09-09T08:50:34;7.53;;;2.87;;
68803;SDS011;55787;52.678;13.314;2022-09-09T08:55:41;6.35;;;1.98;;
68803;SDS011;55787;52.678;13.314;2022-09-09T08:58:16;7.05;;;2.10;;
68803;SDS011;55787;52.678;13.314;2022-09-09T09:00:54;6.32;;;1.88;;
68803;SDS011;55787;52.678;13.314;2022-09-09T09:06:06;6.72;;;1.38;;
68803;SDS011;55787;52.678;13.314;2022-09-09T09:08:48;7.47;;;1.60;;
68803;SDS011;55787;52.678;13.314;2022-09-09T09:11:35;6.13;;;1.60;;
68803;SDS011;55787;52.678;13.314;2022-09-09T09:14:07;8.27;;;1.67;;
68803;SDS011;55787;52.678;13.314;2022-09-09T09:19:04;8.43;;;1.67;;
68803;SDS011;55787;52.678;13.314;2022-09-09T09:24:07;8.73;;;1.90;;
68803;SDS011;55787;52.678;13.314;2022-09-09T09:26:47;6.57;;;1.50;;
68803;SDS011;55787;52.678;13.314;2022-09-09T09:29:17;5.83;;;1.30;;
68803;SDS011;55787;52.678;13.314;2022-09-09T09:31:47;6.55;;;1.45;;
68803;SDS011;55787;52.678;13.314;2022-09-09T09:34:23;7.05;;;1.70;;
68803;SDS011;55787;52.678;13.314;2022-09-09T09:36:56;8.63;;;1.42;;
68803;SDS011;55787;52.678;13.314;2022-09-09T09:39:29;6.93;;;1.40;;
68803;SDS011;55787;52.678;13.314;2022-09-09T09:42:17;6.73;;;1.70;;
68803;SDS011;55787;52.678;13.314;2022-09-09T09:44:48;7.28;;;1.60;;
68803;SDS011;55787;52.678;13.314;2022-09-09T09:47:16;7.20;;;1.90;;
68803;SDS011;55787;52.678;13.314;2022-09-09T09:49:54;6.35;;;1.90;;
68803;SDS011;55787;52.678;13.314;2022-09-09T09:52:24;6.80;;;1.80;;
68803;SDS011;55787;52.678;13.314;2022-09-09T09:54:52;6.00;;;1.90;;
68803;SDS011;55787;52.678;13.314;2022-09-09T09:57:22;7.03;;;1.60;;
68803;SDS011;55787;52.678;13.314;2022-09-09T10:00:04;5.60;;;1.42;;
68803;SDS011;55787;52.678;13.314;2022-09-09T10:02:39;6.28;;;1.75;;
68803;SDS011;55787;52.678;13.314;2022-09-09T10:05:13;7.25;;;1.80;;
68803;SDS011;55787;52.678;13.314;2022-09-09T10:07:40;7.83;;;2.03;;
68803;SDS011;55787;52.678;13.314;2022-09-09T10:10:08;6.47;;;2.00;;
68803;SDS011;55787;52.678;13.314;2022-09-09T10:23:26;6.40;;;1.70;;
68803;SDS011;55787;52.678;13.314;2022-09-09T10:26:01;6.70;;;1.55;;
68803;SDS011;55787;52.678;13.314;2022-09-09T10:28:49;6.90;;;1.80;;
68803;SDS011;55787;52.678;13.314;2022-09-09T10:31:41;5.70;;;1.70;;
68803;SDS011;55787;52.678;13.314;2022-09-09T10:40:33;7.40;;;2.33;;
68803;SDS011;55787;52.678;13.314;2022-09-09T10:43:09;6.75;;;2.35;;
68803;SDS011;55787;52.678;13.314;2022-09-09T10:54:25;5.95;;;1.98;;
68803;SDS011;55787;52.678;13.314;2022-09-09T10:57:33;6.30;;;2.05;;
68803;SDS011;55787;52.678;13.314;2022-09-09T11:00:06;6.50;;;2.40;;
68803;SDS011;55787;52.678;13.314;2022-09-09T11:02:41;8.43;;;2.23;;
68803;SDS011;55787;52.678;13.314;2022-09-09T11:05:20;6.22;;;1.98;;
68803;SDS011;55787;52.678;13.314;2022-09-09T11:10:38;7.32;;;2.22;;
68803;SDS011;55787;52.678;13.314;2022-09-09T11:13:26;6.30;;;1.70;;
68803;SDS011;55787;52.678;13.314;2022-09-09T11:21:53;6.35;;;2.15;;
68803;SDS011;55787;52.678;13.314;2022-09-09T11:27:02;6.10;;;1.77;;
68803;SDS011;55787;52.678;13.314;2022-09-09T11:29:44;5.57;;;1.50;;
68803;SDS011;55787;52.678;13.314;2022-09-09T11:32:42;7.57;;;1.73;;
68803;SDS011;55787;52.678;13.314;2022-09-09T11:35:33;6.47;;;2.05;;
68803;SDS011;55787;52.678;13.314;2022-09-09T11:40:37;5.82;;;1.80;;
68803;SDS011;55787;52.678;13.314;2022-09-09T11:43:15;6.57;;;2.10;;
68803;SDS011;55787;52.678;13.314;2022-09-09T11:45:53;5.93;;;1.77;;
68803;SDS011;55787;52.678;13.314;2022-09-09T11:48:33;6.05;;;2.10;;
68803;SDS011;55787;52.678;13.314;2022-09-09T11:51:03;6.78;;;1.88;;
68803;SDS011;55787;52.678;13.314;2022-09-09T11:53:31;6.30;;;1.90;;
68803;SDS011;55787;52.678;13.314;2022-09-09T11:56:02;5.73;;;1.73;;
68803;SDS011;55787;52.678;13.314;2022-09-09T11:58:38;5.60;;;1.83;;
68803;SDS011;55787;52.678;13.314;2022-09-09T12:01:14;6.25;;;1.98;;
68803;SDS011;55787;52.678;13.314;2022-09-09T12:03:46;5.47;;;1.65;;
68803;SDS011;55787;52.678;13.314;2022-09-09T12:06:17;5.63;;;2.05;;
68803;SDS011;55787;52.678;13.314;2022-09-09T12:08:51;5.40;;;1.23;;
68803;SDS011;55787;52.678;13.314;2022-09-09T12:11:31;7.30;;;1.60;;
68803;SDS011;55787;52.678;13.314;2022-09-09T12:13:59;7.28;;;1.98;;
68803;SDS011;55787;52.678;13.314;2022-09-09T12:16:31;6.65;;;1.90;;
68803;SDS011;55787;52.678;13.314;2022-09-09T12:19:05;6.60;;;1.75;;
68803;SDS011;55787;52.678;13.314;2022-09-09T12:27:24;5.72;;;1.60;;
68803;SDS011;55787;52.678;13.314;2022-09-09T12:29:57;5.30;;;1.48;;
68803;SDS011;55787;52.678;13.314;2022-09-09T12:32:37;7.85;;;1.58;;
68803;SDS011;55787;52.678;13.314;2022-09-09T12:35:09;6.63;;;1.63;;
68803;SDS011;55787;52.678;13.314;2022-09-09T12:40:19;5.13;;;1.10;;
68803;SDS011;55787;52.678;13.314;2022-09-09T12:42:47;4.85;;;1.00;;
68803;SDS011;55787;52.678;13.314;2022-09-09T12:45:18;6.95;;;1.40;;
68803;SDS011;55787;52.678;13.314;2022-09-09T12:50:25;4.70;;;0.95;;
68803;SDS011;55787;52.678;13.314;2022-09-09T12:52:54;5.90;;;1.30;;
68803;SDS011;55787;52.678;13.314;2022-09-09T12:55:27;7.57;;;1.55;;
68803;SDS011;55787;52.678;13.314;2022-09-09T12:57:56;5.35;;;1.48;;
68803;SDS011;55787;52.678;13.314;2022-09-09T13:00:25;5.60;;;1.30;;
68803;SDS011;55787;52.678;13.314;2022-09-09T13:02:53;5.72;;;1.20;;
68803;SDS011;55787;52.678;13.314;2022-09-09T13:05:39;5.80;;;1.20;;
68803;SDS011;55787;52.678;13.314;2022-09-09T13:08:08;5.88;;;1.13;;
68803;SDS011;55787;52.678;13.314;2022-09-09T13:13:37;5.73;;;1.10;;
68803;SDS011;55787;52.678;13.314;2022-09-09T13:16:06;7.68;;;1.20;;
68803;SDS011;55787;52.678;13.314;2022-09-09T13:18:44;6.00;;;1.10;;
68803;SDS011;55787;52.678;13.314;2022-09-09T13:21:10;6.80;;;0.80;;
68803;SDS011;55787;52.678;13.314;2022-09-09T13:23:37;5.78;;;0.95;;
68803;SDS011;55787;52.678;13.314;2022-09-09T13:26:05;5.60;;;0.80;;
68803;SDS011;55787;52.678;13.314;2022-09-09T13:28:45;5.32;;;0.85;;
68803;SDS011;55787;52.678;13.314;2022-09-09T13:31:28;7.07;;;1.05;;
68803;SDS011;55787;52.678;13.314;2022-09-09T13:33:58;5.65;;;1.02;;
68803;SDS011;55787;52.678;13.314;2022-09-09T13:36:29;6.90;;;0.93;;
68803;SDS011;55787;52.678;13.314;2022-09-09T13:39:00;5.67;;;0.80;;
68803;SDS011;55787;52.678;13.314;2022-09-09T13:41:33;5.30;;;0.88;;
68803;SDS011;55787;52.678;13.314;2022-09-09T13:44:02;5.68;;;0.80;;
68803;SDS011;55787;52.678;13.314;2022-09-09T13:51:38;7.03;;;1.00;;
68803;SDS011;55787;52.678;13.314;2022-09-09T13:54:14;6.25;;;0.90;;
68803;SDS011;55787;52.678;13.314;2022-09-09T13:56:42;5.68;;;1.00;;
68803;SDS011;55787;52.678;13.314;2022-09-09T13:59:10;4.55;;;0.80;;
68803;SDS011;55787;52.678;13.314;2022-09-09T14:01:38;5.63;;;1.10;;
68803;SDS011;55787;52.678;13.314;2022-09-09T14:04:05;4.87;;;0.97;;
68803;SDS011;55787;52.678;13.314;2022-09-09T14:06:32;7.07;;;1.00;;
68803;SDS011;55787;52.678;13.314;2022-09-09T14:09:03;5.70;;;1.00;;
68803;SDS011;55787;52.678;13.314;2022-09-09T14:11:30;7.65;;;1.00;;
68803;SDS011;55787;52.678;13.314;2022-09-09T14:13:57;7.35;;;1.00;;
68803;SDS011;55787;52.678;13.314;2022-09-09T14:16:23;5.30;;;0.90;;
68803;SDS011;55787;52.678;13.314;2022-09-09T14:18:50;4.82;;;0.80;;
68803;SDS011;55787;52.678;13.314;2022-09-09T14:21:16;7.18;;;1.00;;
68803;SDS011;55787;52.678;13.314;2022-09-09T14:23:43;5.30;;;0.88;;
68803;SDS011;55787;52.678;13.314;2022-09-09T14:26:09;5.65;;;1.17;;
68803;SDS011;55787;52.678;13.314;2022-09-09T14:28:36;5.60;;;0.83;;
68803;SDS011;55787;52.678;13.314;2022-09-09T14:31:20;6.60;;;0.80;;
68803;SDS011;55787;52.678;13.314;2022-09-09T14:33:47;5.32;;;1.00;;
68803;SDS011;55787;52.678;13.314;2022-09-09T14:36:13;5.03;;;0.88;;
68803;SDS011;55787;52.678;13.314;2022-09-09T14:38:41;4.25;;;0.60;;
68803;SDS011;55787;52.678;13.314;2022-09-09T14:41:10;5.73;;;0.70;;
68803;SDS011;55787;52.678;13.314;2022-09-09T14:43:38;5.10;;;0.80;;
68803;SDS011;55787;52.678;13.314;2022-09-09T14:46:06;6.75;;;0.95;;
68803;SDS011;55787;52.678;13.314;2022-09-09T14:48:42;7.72;;;1.15;;
68803;SDS011;55787;52.678;13.314;2022-09-09T14:51:14;5.00;;;0.82;;
68803;SDS011;55787;52.678;13.314;2022-09-09T14:53:51;5.87;;;1.00;;
68803;SDS011;55787;52.678;13.314;2022-09-09T14:56:19;5.05;;;0.77;;
68803;SDS011;55787;52.678;13.314;2022-09-09T14:58:49;6.43;;;1.38;;
68803;SDS011;55787;52.678;13.314;2022-09-09T15:01:18;4.65;;;0.80;;
68803;SDS011;55787;52.678;13.314;2022-09-09T15:03:59;5.13;;;0.80;;
68803;SDS011;55787;52.678;13.314;2022-09-09T15:06:28;5.33;;;0.80;;
68803;SDS011;55787;52.678;13.314;2022-09-09T15:08:56;5.38;;;0.98;;
68803;SDS011;55787;52.678;13.314;2022-09-09T15:11:27;5.47;;;0.77;;
68803;SDS011;55787;52.678;13.314;2022-09-09T15:13:56;6.63;;;0.70;;
68803;SDS011;55787;52.678;13.314;2022-09-09T15:16:24;6.57;;;0.80;;
68803;SDS011;55787;52.678;13.314;2022-09-09T15:18:54;4.87;;;0.80;;
68803;SDS011;55787;52.678;13.314;2022-09-09T15:21:23;4.88;;;0.63;;
68803;SDS011;55787;52.678;13.314;2022-09-09T15:23:55;4.78;;;0.73;;
68803;SDS011;55787;52.678;13.314;2022-09-09T15:26:22;5.10;;;0.77;;
68803;SDS011;55787;52.678;13.314;2022-09-09T15:28:49;5.60;;;0.70;;
68803;SDS011;55787;52.678;13.314;2022-09-09T15:31:17;5.23;;;0.87;;
68803;SDS011;55787;52.678;13.314;2022-09-09T15:33:49;5.85;;;0.70;;
68803;SDS011;55787;52.678;13.314;2022-09-09T15:36:24;5.13;;;0.70;;
68803;SDS011;55787;52.678;13.314;2022-09-09T15:38:52;5.63;;;0.80;;
68803;SDS011;55787;52.678;13.314;2022-09-09T15:41:19;5.50;;;0.85;;
68803;SDS011;55787;52.678;13.314;2022-09-09T15:43:47;3.93;;;0.50;;
68803;SDS011;55787;52.678;13.314;2022-09-09T15:48:55;3.10;;;0.50;;
68803;SDS011;55787;52.678;13.314;2022-09-09T15:51:29;4.35;;;0.60;;
68803;SDS011;55787;52.678;13.314;2022-09-09T15:54:09;5.28;;;0.60;;
68803;SDS011;55787;52.678;13.314;2022-09-09T15:56:38;5.73;;;0.70;;
68803;SDS011;55787;52.678;13.314;2022-09-09T15:59:04;5.18;;;0.52;;
68803;SDS011;55787;52.678;13.314;2022-09-09T16:01:30;5.70;;;1.10;;
68803;SDS011;55787;52.678;13.314;2022-09-09T16:03:57;6.70;;;1.38;;
68803;SDS011;55787;52.678;13.314;2022-09-09T16:06:26;8.15;;;2.20;;
68803;SDS011;55787;52.678;13.314;2022-09-09T16:08:54;6.37;;;1.90;;
68803;SDS011;55787;52.678;13.314;2022-09-09T16:11:24;6.15;;;1.85;;
68803;SDS011;55787;52.678;13.314;2022-09-09T16:13:52;9.05;;;2.38;;
68803;SDS011;55787;52.678;13.314;2022-09-09T16:16:21;6.85;;;2.05;;
68803;SDS011;55787;52.678;13.314;2022-09-09T16:18:51;8.35;;;2.15;;
68803;SDS011;55787;52.678;13.314;2022-09-09T16:21:29;7.03;;;1.90;;
68803;SDS011;55787;52.678;13.314;2022-09-09T16:23:59;8.15;;;2.10;;
68803;SDS011;55787;52.678;13.314;2022-09-09T16:26:27;8.75;;;2.95;;
68803;SDS011;55787;52.678;13.314;2022-09-09T16:28:54;8.52;;;3.80;;
68803;SDS011;55787;52.678;13.314;2022-09-09T16:31:22;11.93;;;3.90;;
68803;SDS011;55787;52.678;13.314;2022-09-09T16:33:50;9.60;;;3.47;;
68803;SDS011;55787;52.678;13.314;2022-09-09T16:36:18;9.15;;;3.67;;